Time;durP1;ratioP1;P1;durP2;ratioP2;P2;SDS_P1;SDS_P2;PMS_P1;PMS_P2;Temp;Humidity;BMP_temperature;BMP_pressure;BME280_temperature;BME280_humidity;BME280_pressure;Samples;Min_cycle;Max_cycle;Signal;HPM_P1;HPM_P2
2022/01/18 00:02:59;;;;;;;26.33;5.75;;;;;;;;;;10196159;29;20059;-69
2022/01/18 00:08:01;;;;;;;32.42;6.47;;;;;;;;;;10180627;29;20053;-69
2022/01/18 00:18:24;;;;;;;25.73;6.43;;;;;;;;;;10162361;29;20087;-69
2022/01/18 00:23:27;;;;;;;28.77;6.40;;;;;;;;;;10184529;29;20052;-68
2022/01/18 00:28:32;;;;;;;33.70;6.47;;;;;;;;;;10196179;29;20087;-69
2022/01/18 00:38:55;;;;;;;24.73;5.65;;;;;;;;;;10195050;29;20060;-69
2022/01/18 00:43:59;;;;;;;27.27;5.80;;;;;;;;;;10195591;29;20171;-68
2022/01/18 00:49:02;;;;;;;21.95;5.28;;;;;;;;;;10194164;29;20079;-68
2022/01/18 00:54:06;;;;;;;25.85;5.68;;;;;;;;;;10193565;29;20087;-68
2022/01/18 00:59:09;;;;;;;25.38;5.63;;;;;;;;;;10195455;29;20068;-68
2022/01/18 01:04:12;;;;;;;23.08;5.40;;;;;;;;;;10195564;29;20053;-68
2022/01/18 01:09:14;;;;;;;30.40;6.13;;;;;;;;;;10193809;29;20059;-68
2022/01/18 01:14:21;;;;;;;26.42;5.60;;;;;;;;;;10194024;29;20354;-68
2022/01/18 01:19:48;;;;;;;25.48;5.50;;;;;;;;;;10207965;29;20056;-68
2022/01/18 01:35:43;;;;;;;26.55;6.22;;;;;;;;;;10196593;29;20228;-68
2022/01/18 01:46:06;;;;;;;32.58;7.70;;;;;;;;;;10191466;29;20052;-69
2022/01/18 01:51:08;;;;;;;27.60;8.13;;;;;;;;;;10193092;29;20449;-68
2022/01/18 01:56:10;;;;;;;35.42;6.03;;;;;;;;;;10191783;29;20040;-67
2022/01/18 02:01:16;;;;;;;33.75;6.82;;;;;;;;;;10192858;29;20105;-68
2022/01/18 02:06:18;;;;;;;26.40;4.95;;;;;;;;;;10191185;29;20040;-68
2022/01/18 02:11:20;;;;;;;23.35;6.07;;;;;;;;;;10192862;29;20052;-68
2022/01/18 02:21:54;;;;;;;31.23;5.07;;;;;;;;;;10109752;29;20400;-68
2022/01/18 02:26:57;;;;;;;17.77;4.82;;;;;;;;;;10111093;29;20296;-68
2022/01/18 02:31:59;;;;;;;24.85;4.93;;;;;;;;;;10109413;29;20097;-68
2022/01/18 02:37:04;;;;;;;23.05;4.72;;;;;;;;;;10115563;29;20057;-68
2022/01/18 02:42:10;;;;;;;21.27;5.07;;;;;;;;;;10110382;29;20121;-68
2022/01/18 02:47:13;;;;;;;32.70;5.32;;;;;;;;;;10121351;29;20495;-68
2022/01/18 02:52:18;;;;;;;26.05;5.22;;;;;;;;;;10109814;29;20104;-68
2022/01/18 02:57:26;;;;;;;18.55;6.07;;;;;;;;;;10167443;29;20086;-68
2022/01/18 03:07:49;;;;;;;22.05;6.05;;;;;;;;;;10185809;29;20060;-68
2022/01/18 03:12:52;;;;;;;25.45;7.20;;;;;;;;;;10212328;29;20084;-68
2022/01/18 03:17:54;;;;;;;27.10;7.93;;;;;;;;;;10167818;29;20040;-68
2022/01/18 03:22:58;;;;;;;22.75;7.20;;;;;;;;;;10198123;29;20135;-68
2022/01/18 03:28:06;;;;;;;24.60;5.57;;;;;;;;;;10196982;29;20088;-68
2022/01/18 03:33:10;;;;;;;26.65;5.18;;;;;;;;;;10200934;29;20072;-68
2022/01/18 03:38:15;;;;;;;18.70;4.18;;;;;;;;;;10188044;29;20052;-69
2022/01/18 03:43:18;;;;;;;21.63;4.67;;;;;;;;;;10158422;29;20063;-69
2022/01/18 03:48:28;;;;;;;22.80;4.45;;;;;;;;;;10192818;29;20075;-69
2022/01/18 03:53:31;;;;;;;21.77;7.18;;;;;;;;;;10211110;29;20055;-69
2022/01/18 03:58:34;;;;;;;21.92;4.68;;;;;;;;;;10169751;29;20086;-69
2022/01/18 04:03:37;;;;;;;15.85;4.22;;;;;;;;;;10164414;29;20049;-67
2022/01/18 04:08:40;;;;;;;22.70;5.20;;;;;;;;;;10179674;29;20244;-69
2022/01/18 04:13:42;;;;;;;24.40;4.38;;;;;;;;;;10197158;29;20048;-67
2022/01/18 04:18:54;;;;;;;24.90;4.57;;;;;;;;;;10196745;29;20076;-67
2022/01/18 04:29:18;;;;;;;22.92;5.40;;;;;;;;;;10196900;29;20078;-69
2022/01/18 04:34:21;;;;;;;20.77;5.45;;;;;;;;;;10196187;29;20080;-69
2022/01/18 04:39:24;;;;;;;30.30;8.25;;;;;;;;;;10196392;29;20067;-69
2022/01/18 04:49:43;;;;;;;29.25;7.68;;;;;;;;;;10196968;29;20052;-69
2022/01/18 04:54:57;;;;;;;27.58;7.90;;;;;;;;;;10196471;29;20075;-69
2022/01/18 04:59:59;;;;;;;41.42;10.05;;;;;;;;;;10207992;29;20048;-69
2022/01/18 05:05:01;;;;;;;46.30;11.93;;;;;;;;;;10192825;29;20107;-68
2022/01/18 05:10:06;;;;;;;57.45;15.95;;;;;;;;;;10155750;29;20060;-68
2022/01/18 05:15:33;;;;;;;65.77;19.07;;;;;;;;;;10173659;29;20052;-68
2022/01/18 05:20:54;;;;;;;96.00;28.60;;;;;;;;;;10176529;29;20049;-68
2022/01/18 05:25:58;;;;;;;141.57;40.63;;;;;;;;;;10168384;29;20051;-68
2022/01/18 05:31:00;;;;;;;131.40;39.10;;;;;;;;;;10155456;29;20048;-68
2022/01/18 05:36:03;;;;;;;118.85;36.83;;;;;;;;;;10185765;29;20330;-68
2022/01/18 05:41:08;;;;;;;137.52;39.15;;;;;;;;;;10193461;29;20052;-68
2022/01/18 05:46:11;;;;;;;122.28;36.10;;;;;;;;;;10206767;29;20052;-68
2022/01/18 05:51:13;;;;;;;113.93;35.75;;;;;;;;;;10189960;29;20091;-68
2022/01/18 05:56:17;;;;;;;116.57;36.42;;;;;;;;;;10184228;29;20064;-69
2022/01/18 06:01:26;;;;;;;104.97;34.58;;;;;;;;;;10164585;29;20304;-69
2022/01/18 06:11:50;;;;;;;81.22;22.77;;;;;;;;;;10201818;29;20063;-69
2022/01/18 06:16:52;;;;;;;57.47;18.95;;;;;;;;;;10182227;29;20040;-69
2022/01/18 06:21:55;;;;;;;65.07;17.38;;;;;;;;;;10191168;29;20052;-69
2022/01/18 06:26:58;;;;;;;62.42;15.50;;;;;;;;;;10190983;29;20052;-69
2022/01/18 06:32:01;;;;;;;60.50;15.30;;;;;;;;;;10152913;29;20052;-69
2022/01/18 06:37:04;;;;;;;59.00;13.10;;;;;;;;;;10179036;29;20060;-69
2022/01/18 06:42:10;;;;;;;48.85;14.85;;;;;;;;;;10191080;29;20087;-69
2022/01/18 06:47:12;;;;;;;65.70;17.42;;;;;;;;;;10202855;29;20288;-69
2022/01/18 06:52:14;;;;;;;55.28;15.63;;;;;;;;;;10192358;29;20052;-69
2022/01/18 06:57:18;;;;;;;48.33;13.35;;;;;;;;;;10190511;29;20091;-69
2022/01/18 07:02:20;;;;;;;36.13;9.80;;;;;;;;;;10191970;29;20072;-69
2022/01/18 07:07:23;;;;;;;47.33;11.43;;;;;;;;;;10190306;29;20119;-68
2022/01/18 07:12:32;;;;;;;64.57;11.48;;;;;;;;;;10190688;29;20052;-68
2022/01/18 07:17:35;;;;;;;38.75;11.27;;;;;;;;;;10200795;29;20052;-68
2022/01/18 07:22:37;;;;;;;38.33;10.23;;;;;;;;;;10190959;29;20213;-68
2022/01/18 07:27:41;;;;;;;27.15;8.93;;;;;;;;;;10191066;29;20110;-68
2022/01/18 07:32:43;;;;;;;28.55;9.02;;;;;;;;;;10190299;29;20047;-68
2022/01/18 07:37:45;;;;;;;36.28;10.27;;;;;;;;;;10190258;29;20328;-69
2022/01/18 07:42:49;;;;;;;28.65;10.77;;;;;;;;;;10191141;29;20079;-67
2022/01/18 07:47:52;;;;;;;39.22;10.05;;;;;;;;;;10189587;29;20052;-68
2022/01/18 07:52:54;;;;;;;28.52;9.70;;;;;;;;;;10189765;29;20075;-68
2022/01/18 07:57:59;;;;;;;29.48;10.48;;;;;;;;;;10195022;29;20099;-68
2022/01/18 08:03:02;;;;;;;33.45;10.00;;;;;;;;;;10197343;29;20327;-67
2022/01/18 08:08:05;;;;;;;25.20;8.20;;;;;;;;;;10197672;29;20056;-68
2022/01/18 08:13:08;;;;;;;24.10;7.22;;;;;;;;;;10196469;29;20067;-68
2022/01/18 08:18:13;;;;;;;20.70;6.70;;;;;;;;;;10196559;29;20343;-67
2022/01/18 08:23:15;;;;;;;25.67;6.85;;;;;;;;;;10196805;29;20052;-68
2022/01/18 08:28:19;;;;;;;19.88;6.40;;;;;;;;;;10196313;29;20232;-68
2022/01/18 08:33:22;;;;;;;16.37;6.03;;;;;;;;;;10193620;29;20145;-68
2022/01/18 08:38:25;;;;;;;19.25;6.28;;;;;;;;;;10194784;29;20055;-69
2022/01/18 08:43:30;;;;;;;21.48;6.20;;;;;;;;;;10195540;29;20326;-73
2022/01/18 08:48:34;;;;;;;17.40;6.13;;;;;;;;;;10195353;29;20076;-69
2022/01/18 08:53:37;;;;;;;23.30;6.93;;;;;;;;;;10195808;29;20059;-68
2022/01/18 08:58:41;;;;;;;16.92;5.90;;;;;;;;;;10194999;29;20087;-68
2022/01/18 09:03:44;;;;;;;19.23;6.60;;;;;;;;;;10194985;29;20091;-69
2022/01/18 09:08:55;;;;;;;19.52;5.93;;;;;;;;;;10194446;29;20082;-68
2022/01/18 09:13:59;;;;;;;15.77;6.55;;;;;;;;;;10206146;29;20082;-68
2022/01/18 09:19:01;;;;;;;21.25;6.68;;;;;;;;;;10194615;29;20087;-68
2022/01/18 09:24:03;;;;;;;21.83;6.93;;;;;;;;;;10194288;29;20407;-68
2022/01/18 09:29:09;;;;;;;22.73;7.57;;;;;;;;;;10187943;29;20060;-67
2022/01/18 09:34:12;;;;;;;22.70;8.07;;;;;;;;;;10195020;29;20183;-67
2022/01/18 09:39:14;;;;;;;25.92;12.38;;;;;;;;;;10190452;29;20073;-66
2022/01/18 09:44:19;;;;;;;26.45;10.57;;;;;;;;;;10193846;29;20056;-69
2022/01/18 09:49:22;;;;;;;27.67;9.63;;;;;;;;;;10192941;29;20332;-68
2022/01/18 09:54:24;;;;;;;24.08;8.13;;;;;;;;;;10193410;29;20087;-68
2022/01/18 09:59:28;;;;;;;24.45;9.10;;;;;;;;;;10193490;29;20119;-72
2022/01/18 10:04:33;;;;;;;22.25;7.88;;;;;;;;;;10193131;29;20104;-68
2022/01/18 10:09:36;;;;;;;23.70;8.77;;;;;;;;;;10193491;29;20081;-69
2022/01/18 10:14:41;;;;;;;26.13;7.05;;;;;;;;;;10192539;29;20076;-68
2022/01/18 10:19:50;;;;;;;19.38;6.57;;;;;;;;;;10191906;29;20352;-68
2022/01/18 10:24:53;;;;;;;21.13;6.78;;;;;;;;;;10191025;29;20055;-68
2022/01/18 10:29:57;;;;;;;27.02;6.95;;;;;;;;;;10193117;29;20040;-68
2022/01/18 10:35:05;;;;;;;25.52;7.45;;;;;;;;;;10192884;29;20059;-68
2022/01/18 10:40:13;;;;;;;16.60;6.88;;;;;;;;;;10204976;29;20251;-67
2022/01/18 10:45:23;;;;;;;22.33;7.43;;;;;;;;;;10191184;29;20071;-67
2022/01/18 10:50:26;;;;;;;24.70;8.02;;;;;;;;;;10206369;29;20319;-69
2022/01/18 10:55:28;;;;;;;25.88;8.00;;;;;;;;;;10191936;29;20070;-68
2022/01/18 11:00:32;;;;;;;23.10;7.25;;;;;;;;;;10190922;29;20131;-68
2022/01/18 11:05:37;;;;;;;23.83;6.80;;;;;;;;;;10191865;29;20220;-68
2022/01/18 11:10:41;;;;;;;19.93;7.37;;;;;;;;;;10190932;29;20068;-69
2022/01/18 11:15:48;;;;;;;23.70;7.03;;;;;;;;;;10188660;29;20048;-69
2022/01/18 11:20:50;;;;;;;25.45;7.88;;;;;;;;;;10202257;29;20331;-66
2022/01/18 11:25:58;;;;;;;21.85;7.28;;;;;;;;;;10189648;29;20072;-69
2022/01/18 11:31:02;;;;;;;24.33;8.77;;;;;;;;;;10188829;29;20174;-68
2022/01/18 11:36:07;;;;;;;21.50;7.53;;;;;;;;;;10197325;29;20080;-68
2022/01/18 11:41:22;;;;;;;17.08;6.75;;;;;;;;;;10212364;29;20040;-69
2022/01/18 11:46:27;;;;;;;17.38;6.57;;;;;;;;;;10197899;29;20068;-69
2022/01/18 11:51:37;;;;;;;26.10;8.32;;;;;;;;;;10197380;29;20100;-69
2022/01/18 11:56:40;;;;;;;23.40;10.65;;;;;;;;;;10188593;29;20345;-67
2022/01/18 12:01:55;;;;;;;22.15;8.05;;;;;;;;;;10157979;29;20359;-68
2022/01/18 12:06:57;;;;;;;24.27;8.30;;;;;;;;;;10197925;29;20365;-68
2022/01/18 12:12:00;;;;;;;29.60;10.38;;;;;;;;;;10192075;29;20096;-68
2022/01/18 12:17:15;;;;;;;30.30;8.95;;;;;;;;;;10157934;29;20048;-68
2022/01/18 12:22:17;;;;;;;27.30;9.57;;;;;;;;;;10198858;29;20059;-68
2022/01/18 12:27:31;;;;;;;27.20;8.70;;;;;;;;;;10195777;29;20059;-66
2022/01/18 12:32:56;;;;;;;33.17;12.73;;;;;;;;;;10196214;29;20060;-68
2022/01/18 12:37:59;;;;;;;32.80;12.67;;;;;;;;;;10207637;29;20088;-68
2022/01/18 12:48:28;;;;;;;34.57;12.67;;;;;;;;;;10208589;29;20051;-67
2022/01/18 12:53:36;;;;;;;29.20;12.27;;;;;;;;;;10205707;29;20580;-68
2022/01/18 12:58:40;;;;;;;38.20;13.43;;;;;;;;;;10219140;28;20335;-69
2022/01/18 13:03:45;;;;;;;38.05;15.27;;;;;;;;;;10193942;29;20060;-67
2022/01/18 13:08:49;;;;;;;30.00;12.68;;;;;;;;;;10193668;29;20072;-67
2022/01/18 13:13:57;;;;;;;35.30;13.13;;;;;;;;;;10205359;29;20078;-68
2022/01/18 13:29:51;;;;;;;31.93;11.20;;;;;;;;;;10194268;29;20115;-66
2022/01/18 13:34:59;;;;;;;29.33;12.73;;;;;;;;;;10193890;29;20293;-66
2022/01/18 13:40:05;;;;;;;40.00;14.75;;;;;;;;;;10193985;29;20347;-68
2022/01/18 13:45:11;;;;;;;40.28;15.88;;;;;;;;;;10194839;29;20248;-67
2022/01/18 13:50:38;;;;;;;47.50;16.13;;;;;;;;;;10185887;29;20451;-69
2022/01/18 13:55:50;;;;;;;43.67;15.93;;;;;;;;;;10206280;29;20043;-68
2022/01/18 14:01:05;;;;;;;40.30;14.93;;;;;;;;;;10205443;29;20051;-68
2022/01/18 14:06:11;;;;;;;45.88;18.77;;;;;;;;;;10206335;29;20068;-67
2022/01/18 14:11:17;;;;;;;47.20;17.20;;;;;;;;;;10192231;29;20055;-67
2022/01/18 14:16:25;;;;;;;44.83;15.63;;;;;;;;;;10197237;29;20115;-68
2022/01/18 14:21:32;;;;;;;36.90;16.05;;;;;;;;;;10193312;29;20087;-69
2022/01/18 14:26:35;;;;;;;45.47;18.25;;;;;;;;;;10205858;29;20067;-69
2022/01/18 14:31:38;;;;;;;50.90;20.05;;;;;;;;;;10192523;29;20052;-68
2022/01/18 14:36:55;;;;;;;63.53;24.80;;;;;;;;;;10191557;29;20087;-68
2022/01/18 14:42:02;;;;;;;59.05;22.30;;;;;;;;;;10191346;29;20055;-67
2022/01/18 14:52:27;;;;;;;52.10;18.85;;;;;;;;;;10189531;29;20391;-68
2022/01/18 14:57:30;;;;;;;58.13;21.25;;;;;;;;;;10190637;29;20107;-69
2022/01/18 15:02:34;;;;;;;60.17;22.67;;;;;;;;;;10191381;29;20050;-67
2022/01/18 15:07:38;;;;;;;62.70;22.63;;;;;;;;;;10196394;29;20052;-68
2022/01/18 15:12:43;;;;;;;56.43;19.87;;;;;;;;;;10198353;29;20047;-68
2022/01/18 15:17:48;;;;;;;59.60;21.07;;;;;;;;;;10199628;29;20056;-67
2022/01/18 15:22:52;;;;;;;60.47;19.98;;;;;;;;;;10199174;29;20322;-67
2022/01/18 15:27:55;;;;;;;67.60;23.20;;;;;;;;;;10199353;29;20043;-68
2022/01/18 15:32:57;;;;;;;70.47;23.60;;;;;;;;;;10198709;29;20353;-68
2022/01/18 15:38:00;;;;;;;61.10;22.98;;;;;;;;;;10199155;29;20391;-68
2022/01/18 15:43:03;;;;;;;60.03;20.38;;;;;;;;;;10198605;29;20048;-67
2022/01/18 15:48:06;;;;;;;65.75;22.30;;;;;;;;;;10198064;29;20074;-68
2022/01/18 15:53:11;;;;;;;68.68;23.35;;;;;;;;;;10198188;29;20117;-67
2022/01/18 15:58:14;;;;;;;67.70;22.23;;;;;;;;;;10211015;29;20075;-71
2022/01/18 16:03:18;;;;;;;65.88;20.48;;;;;;;;;;10203005;29;20079;-69
2022/01/18 16:08:22;;;;;;;55.33;20.67;;;;;;;;;;10195882;29;20064;-69
2022/01/18 16:13:24;;;;;;;73.93;24.42;;;;;;;;;;10196997;29;20078;-70
2022/01/18 16:18:26;;;;;;;70.70;24.40;;;;;;;;;;10196789;29;20240;-69
2022/01/18 16:23:30;;;;;;;69.47;22.75;;;;;;;;;;10196525;29;20347;-69
2022/01/18 16:28:35;;;;;;;73.40;25.55;;;;;;;;;;10201375;29;20399;-69
2022/01/18 16:33:37;;;;;;;91.13;28.17;;;;;;;;;;10196057;29;20244;-68
2022/01/18 16:38:41;;;;;;;82.95;29.77;;;;;;;;;;10197269;29;20280;-68
2022/01/18 16:43:43;;;;;;;91.65;28.85;;;;;;;;;;10194975;29;20051;-69
2022/01/18 16:48:45;;;;;;;77.65;26.15;;;;;;;;;;10194968;29;20071;-68
2022/01/18 16:53:49;;;;;;;80.32;26.45;;;;;;;;;;10195942;29;20064;-66
2022/01/18 16:58:53;;;;;;;80.13;26.42;;;;;;;;;;10195219;29;20125;-66
2022/01/18 17:03:55;;;;;;;84.47;27.00;;;;;;;;;;10186454;29;20080;-68
2022/01/18 17:08:59;;;;;;;81.45;26.30;;;;;;;;;;10195389;29;20075;-70
2022/01/18 17:14:02;;;;;;;84.20;29.33;;;;;;;;;;10196249;29;20052;-72
2022/01/18 17:19:05;;;;;;;99.00;29.83;;;;;;;;;;10195020;29;20044;-69
2022/01/18 17:24:09;;;;;;;109.32;28.88;;;;;;;;;;10195948;29;20048;-66
2022/01/18 17:29:11;;;;;;;127.75;31.92;;;;;;;;;;10195565;29;20059;-67
2022/01/18 17:34:14;;;;;;;109.82;30.45;;;;;;;;;;10194925;29;20097;-67
2022/01/18 17:39:17;;;;;;;98.93;30.77;;;;;;;;;;10194293;29;20044;-69
2022/01/18 17:44:20;;;;;;;126.68;33.45;;;;;;;;;;10195139;29;20077;-68
2022/01/18 17:49:22;;;;;;;136.25;33.88;;;;;;;;;;10194528;29;20068;-69
2022/01/18 17:54:26;;;;;;;120.20;32.75;;;;;;;;;;10194588;29;20067;-69
2022/01/18 17:59:28;;;;;;;120.93;32.33;;;;;;;;;;10193592;29;20088;-69
2022/01/18 18:04:31;;;;;;;122.70;33.25;;;;;;;;;;10194532;29;20292;-67
2022/01/18 18:09:34;;;;;;;101.90;28.63;;;;;;;;;;10194216;29;20044;-68
2022/01/18 18:14:37;;;;;;;101.95;26.95;;;;;;;;;;10191386;29;20235;-66
2022/01/18 18:19:40;;;;;;;82.10;26.58;;;;;;;;;;10194655;29;20067;-66
2022/01/18 18:24:44;;;;;;;226.43;90.57;;;;;;;;;;10189937;29;20052;-68
2022/01/18 18:29:46;;;;;;;82.32;28.95;;;;;;;;;;10193530;29;20079;-69
2022/01/18 18:34:48;;;;;;;92.32;29.70;;;;;;;;;;10194286;29;20255;-69
2022/01/18 18:40:03;;;;;;;89.55;28.40;;;;;;;;;;10203034;29;20052;-69
2022/01/18 18:45:05;;;;;;;96.88;29.23;;;;;;;;;;10194566;29;20292;-68
2022/01/18 18:50:08;;;;;;;84.88;24.90;;;;;;;;;;10194560;29;20143;-68
2022/01/18 18:55:15;;;;;;;76.30;27.17;;;;;;;;;;10194384;29;20063;-66
2022/01/18 19:00:21;;;;;;;83.35;30.73;;;;;;;;;;10206944;29;20044;-68
2022/01/18 19:05:24;;;;;;;66.95;25.52;;;;;;;;;;10207964;29;20048;-67
2022/01/18 19:10:29;;;;;;;69.68;22.90;;;;;;;;;;10194749;29;20052;-68
2022/01/18 19:15:32;;;;;;;59.05;23.48;;;;;;;;;;10193947;29;20048;-69
2022/01/18 19:20:34;;;;;;;61.65;24.98;;;;;;;;;;10193756;29;20071;-67
2022/01/18 19:25:38;;;;;;;57.20;22.75;;;;;;;;;;10193836;29;20243;-68
2022/01/18 19:30:40;;;;;;;59.90;21.83;;;;;;;;;;10189357;29;20100;-66
2022/01/18 19:35:45;;;;;;;57.05;21.77;;;;;;;;;;10190388;29;20075;-69
2022/01/18 19:40:49;;;;;;;66.82;22.75;;;;;;;;;;10193560;29;20044;-67
2022/01/18 19:45:52;;;;;;;59.43;22.03;;;;;;;;;;10193138;29;20056;-67
2022/01/18 19:50:58;;;;;;;62.50;22.67;;;;;;;;;;10193176;29;20052;-69
2022/01/18 19:56:02;;;;;;;61.97;24.52;;;;;;;;;;10200119;29;20048;-67
2022/01/18 20:01:04;;;;;;;52.67;22.80;;;;;;;;;;10209805;29;20052;-67
2022/01/18 20:06:07;;;;;;;58.53;21.83;;;;;;;;;;10239477;29;20060;-69
2022/01/18 20:11:11;;;;;;;68.60;21.92;;;;;;;;;;10238687;29;20091;-69
2022/01/18 20:16:13;;;;;;;57.63;25.40;;;;;;;;;;10222801;29;20111;-70
2022/01/18 20:21:18;;;;;;;81.13;31.38;;;;;;;;;;10199623;29;20223;-65
2022/01/18 20:26:23;;;;;;;75.70;29.55;;;;;;;;;;10199147;29;20362;-69
2022/01/18 20:31:28;;;;;;;81.70;31.10;;;;;;;;;;10197456;29;20350;-69
2022/01/18 20:36:34;;;;;;;82.95;31.85;;;;;;;;;;10197759;29;20080;-68
2022/01/18 20:46:55;;;;;;;80.47;28.50;;;;;;;;;;10179815;29;20343;-67
2022/01/18 20:51:57;;;;;;;78.88;25.48;;;;;;;;;;10198182;29;20051;-66
2022/01/18 20:57:01;;;;;;;87.95;25.98;;;;;;;;;;10196580;29;20096;-67
2022/01/18 21:02:05;;;;;;;79.07;26.42;;;;;;;;;;10196109;29;20052;-68
2022/01/18 21:07:07;;;;;;;67.05;24.63;;;;;;;;;;10195610;29;20060;-67
2022/01/18 21:12:11;;;;;;;72.35;24.40;;;;;;;;;;10196766;29;20071;-67
2022/01/18 21:17:21;;;;;;;67.55;24.52;;;;;;;;;;10193553;29;20224;-69
2022/01/18 21:22:24;;;;;;;61.88;23.27;;;;;;;;;;10196977;29;20056;-67
2022/01/18 21:27:28;;;;;;;78.80;25.67;;;;;;;;;;10197325;29;20263;-68
2022/01/18 21:32:33;;;;;;;81.15;28.33;;;;;;;;;;10195778;29;20152;-67
2022/01/18 21:37:35;;;;;;;83.35;30.38;;;;;;;;;;10196001;29;20055;-69
2022/01/18 21:42:41;;;;;;;63.75;24.23;;;;;;;;;;10195796;29;20360;-66
2022/01/18 21:47:44;;;;;;;67.72;23.40;;;;;;;;;;10196135;29;20075;-69
2022/01/18 21:52:46;;;;;;;72.22;23.48;;;;;;;;;;10195514;29;20115;-68
2022/01/18 21:57:52;;;;;;;63.63;23.75;;;;;;;;;;10195115;29;20040;-67
2022/01/18 22:02:55;;;;;;;66.10;23.33;;;;;;;;;;10195282;29;20048;-68
2022/01/18 22:07:58;;;;;;;63.17;21.83;;;;;;;;;;10195044;29;20040;-69
2022/01/18 22:13:01;;;;;;;52.10;20.88;;;;;;;;;;10194310;29;20072;-68
2022/01/18 22:18:04;;;;;;;55.55;21.35;;;;;;;;;;10194433;29;20060;-67
2022/01/18 22:23:07;;;;;;;52.88;18.95;;;;;;;;;;10193483;29;20051;-66
2022/01/18 22:28:11;;;;;;;55.45;21.50;;;;;;;;;;10193654;29;20068;-68
2022/01/18 22:33:14;;;;;;;53.03;20.42;;;;;;;;;;10192160;29;20075;-68
2022/01/18 22:38:17;;;;;;;53.33;19.63;;;;;;;;;;10184329;29;20290;-68
2022/01/18 22:43:21;;;;;;;51.78;18.83;;;;;;;;;;10193448;29;20369;-66
2022/01/18 22:48:23;;;;;;;45.45;17.30;;;;;;;;;;10192856;29;20068;-66
2022/01/18 22:53:25;;;;;;;47.85;16.20;;;;;;;;;;10182970;29;20379;-66
2022/01/18 22:58:29;;;;;;;54.40;17.27;;;;;;;;;;10193286;29;20264;-66
2022/01/18 23:03:32;;;;;;;46.50;16.90;;;;;;;;;;10192746;29;20066;-68
2022/01/18 23:08:34;;;;;;;55.08;18.48;;;;;;;;;;10193352;29;20063;-67
2022/01/18 23:13:40;;;;;;;51.17;20.30;;;;;;;;;;10173162;29;20056;-68
2022/01/18 23:18:43;;;;;;;56.03;19.90;;;;;;;;;;10153742;29;20052;-66
2022/01/18 23:23:46;;;;;;;49.97;18.98;;;;;;;;;;10180209;29;20055;-68
2022/01/18 23:28:50;;;;;;;43.78;18.17;;;;;;;;;;10187824;29;20048;-68
2022/01/18 23:33:52;;;;;;;45.17;18.10;;;;;;;;;;10196638;29;20071;-67
2022/01/18 23:38:58;;;;;;;49.53;17.73;;;;;;;;;;10198695;29;20150;-68
2022/01/18 23:44:04;;;;;;;38.65;15.75;;;;;;;;;;10209117;29;20067;-67
2022/01/18 23:49:08;;;;;;;37.30;15.25;;;;;;;;;;10212340;29;20091;-66
2022/01/18 23:54:12;;;;;;;49.30;15.88;;;;;;;;;;10199229;29;20056;-67
2022/01/18 23:59:16;;;;;;;37.75;15.38;;;;;;;;;;10199433;29;20107;-67
